createdAt,value
2023-01-21T00:00:06.626Z,51.83
2023-01-21T00:05:11.791Z,40.30
2023-01-21T00:10:19.148Z,45.90
2023-01-21T00:15:23.881Z,34.80
2023-01-21T00:20:28.651Z,36.85
2023-01-21T00:25:35.883Z,34.20
2023-01-21T00:30:41.953Z,58.72
2023-01-21T00:35:46.648Z,42.33
2023-01-21T00:40:53.894Z,61.08
2023-01-21T00:45:58.556Z,49.38
2023-01-21T00:51:03.544Z,47.25
2023-01-21T00:56:12.111Z,70.72
2023-01-21T01:01:18.601Z,46.90
2023-01-21T01:06:24.078Z,34.55
2023-01-21T01:11:31.802Z,38.17
2023-01-21T01:16:36.477Z,37.60
2023-01-21T01:21:41.149Z,44.78
2023-01-21T01:26:48.560Z,32.88
2023-01-21T01:31:53.248Z,37.72
2023-01-21T01:36:58.042Z,33.25
2023-01-21T01:42:05.590Z,28.92
2023-01-21T01:47:10.319Z,45.45
2023-01-21T01:52:15.426Z,49.28
2023-01-21T01:57:24.358Z,35.70
2023-01-21T02:02:29.111Z,37.22
2023-01-21T02:07:39.459Z,38.80
2023-01-21T02:17:54.569Z,22.42
2023-01-21T02:23:02.249Z,48.25
2023-01-21T02:28:13.585Z,51.13
2023-01-21T02:33:42.261Z,27.10
2023-01-21T02:38:55.545Z,29.90
2023-01-21T02:44:04.785Z,28.15
2023-01-21T02:49:12.877Z,27.17
2023-01-21T02:54:32.259Z,21.48
2023-01-21T02:59:40.154Z,47.03
2023-01-21T03:04:53.337Z,36.10
2023-01-21T03:10:01.173Z,21.33
2023-01-21T03:15:22.470Z,19.83
2023-01-21T03:20:32.093Z,22.65
2023-01-21T03:25:37.896Z,21.33
2023-01-21T03:30:49.508Z,20.05
2023-01-21T03:35:56.939Z,20.33
2023-01-21T03:41:04.407Z,18.40
2023-01-21T03:46:12.897Z,19.77
2023-01-21T03:51:20.681Z,19.15
2023-01-21T03:56:25.752Z,19.33
2023-01-21T04:01:33.054Z,18.70
2023-01-21T04:06:38.048Z,18.38
2023-01-21T04:11:42.747Z,18.23
2023-01-21T04:16:50.088Z,18.80
2023-01-21T04:21:54.855Z,20.48
2023-01-21T04:26:59.563Z,18.95
2023-01-21T04:32:07.099Z,18.63
2023-01-21T04:37:11.738Z,17.33
2023-01-21T04:42:16.500Z,18.48
2023-01-21T04:47:23.774Z,17.75
2023-01-21T04:52:28.466Z,23.55
2023-01-21T04:57:35.295Z,18.88
2023-01-21T05:02:42.707Z,17.48
2023-01-21T05:07:47.616Z,17.42
2023-01-21T05:12:54.694Z,19.52
2023-01-21T05:18:02.090Z,17.95
2023-01-21T05:23:06.925Z,19.30
2023-01-21T05:28:11.607Z,19.15
2023-01-21T05:33:18.874Z,18.25
2023-01-21T05:38:23.661Z,18.08
2023-01-21T05:43:28.937Z,18.00
2023-01-21T05:48:36.963Z,17.15
2023-01-21T05:53:42.161Z,18.02
2023-01-21T05:58:47.151Z,17.77
2023-01-21T06:03:54.547Z,23.35
2023-01-21T06:08:59.358Z,20.05
2023-01-21T06:14:05.230Z,18.00
2023-01-21T06:19:13.538Z,21.25
2023-01-21T06:24:18.290Z,22.00
2023-01-21T06:29:22.967Z,19.23
2023-01-21T06:34:30.305Z,17.63
2023-01-21T06:39:35.112Z,18.38
2023-01-21T06:44:43.100Z,19.33
2023-01-21T06:49:50.401Z,18.63
2023-01-21T06:54:55.039Z,18.00
2023-01-21T07:00:02.839Z,19.77
2023-01-21T07:05:10.607Z,19.35
2023-01-21T07:10:15.627Z,18.48
2023-01-21T07:15:20.682Z,19.20
2023-01-21T07:20:28.060Z,19.02
2023-01-21T07:25:32.725Z,18.80
2023-01-21T07:30:37.406Z,19.63
2023-01-21T07:35:44.683Z,22.50
2023-01-21T07:40:50.709Z,19.65
2023-01-21T07:45:59.961Z,21.35
2023-01-21T07:51:07.532Z,21.00
2023-01-21T07:56:12.697Z,20.58
2023-01-21T08:01:17.500Z,21.60
2023-01-21T08:06:24.926Z,22.92
2023-01-21T08:11:29.610Z,22.05
2023-01-21T08:16:34.381Z,22.35
2023-01-21T08:21:43.645Z,21.52
2023-01-21T08:26:49.435Z,21.92
2023-01-21T08:31:54.397Z,26.58
2023-01-21T08:37:01.759Z,21.67
2023-01-21T08:42:06.765Z,30.50
2023-01-21T08:47:13.482Z,24.52
2023-01-21T08:52:21.801Z,21.13
2023-01-21T08:57:26.463Z,22.38
2023-01-21T09:02:31.443Z,20.88
2023-01-21T09:07:38.815Z,21.45
2023-01-21T09:12:43.652Z,28.65
2023-01-21T09:17:48.406Z,22.63
2023-01-21T09:22:55.787Z,31.20
2023-01-21T09:28:00.524Z,23.30
2023-01-21T09:33:05.242Z,30.38
2023-01-21T09:38:13.033Z,27.38
2023-01-21T09:43:21.410Z,25.10
2023-01-21T09:48:29.714Z,28.20
2023-01-21T09:53:39.891Z,34.10
2023-01-21T09:58:49.556Z,21.88
2023-01-21T10:03:58.464Z,22.37
2023-01-21T10:09:18.706Z,20.20
2023-01-21T10:14:27.973Z,24.05
2023-01-21T10:19:35.834Z,22.08
2023-01-21T10:24:46.384Z,23.02
2023-01-21T10:29:53.296Z,22.13
2023-01-21T10:34:58.990Z,31.80
2023-01-21T10:40:12.737Z,28.08
2023-01-21T10:45:24.183Z,28.00
2023-01-21T10:50:32.229Z,69.13
2023-01-21T10:55:43.833Z,30.13
2023-01-21T11:00:50.297Z,25.90
2023-01-21T11:05:55.122Z,42.50
2023-01-21T11:11:02.768Z,24.80
2023-01-21T11:16:08.070Z,27.95
2023-01-21T11:21:29.035Z,38.65
2023-01-21T11:26:40.283Z,29.35
2023-01-21T11:31:46.866Z,33.60
2023-01-21T11:37:01.782Z,36.85
2023-01-21T11:42:10.714Z,38.55
2023-01-21T11:47:31.109Z,40.03
2023-01-21T11:52:36.903Z,39.13
2023-01-21T11:57:47.237Z,34.80
2023-01-21T12:02:56.071Z,42.60
2023-01-21T12:08:01.350Z,34.63
2023-01-21T12:13:21.153Z,27.88
2023-01-21T12:18:32.807Z,31.70
2023-01-21T12:23:53.007Z,79.35
2023-01-21T12:29:02.482Z,36.67
2023-01-21T12:34:13.798Z,38.47
2023-01-21T12:39:21.463Z,63.55
2023-01-21T12:44:30.629Z,44.17
2023-01-21T12:49:49.945Z,34.70
2023-01-21T12:54:57.146Z,37.97
2023-01-21T13:00:05.757Z,37.95
2023-01-21T13:05:16.186Z,38.63
2023-01-21T13:10:23.006Z,44.45
2023-01-21T13:15:30.758Z,54.75
2023-01-21T13:20:40.522Z,31.63
2023-01-21T13:25:48.588Z,35.65
2023-01-21T13:30:55.556Z,25.55
2023-01-21T13:36:09.330Z,21.80
2023-01-21T13:41:20.375Z,48.83
2023-01-21T13:46:42.963Z,32.80
2023-01-21T13:51:54.090Z,20.05
2023-01-21T13:57:06.675Z,28.00
2023-01-21T14:02:14.773Z,21.13
2023-01-21T14:07:27.205Z,26.63
2023-01-21T14:12:37.789Z,24.92
2023-01-21T14:17:58.234Z,27.05
2023-01-21T14:23:12.549Z,25.15
2023-01-21T14:28:22.265Z,30.23
2023-01-21T14:33:31.288Z,23.33
2023-01-21T14:38:43.682Z,20.02
2023-01-21T14:43:53.017Z,24.45
2023-01-21T14:49:06.517Z,32.80
2023-01-21T14:54:17.142Z,20.38
2023-01-21T14:59:30.506Z,16.33
2023-01-21T15:04:37.594Z,15.70
2023-01-21T15:09:54.070Z,14.73
2023-01-21T15:15:00.443Z,15.45
2023-01-21T15:20:19.878Z,20.33
2023-01-21T15:25:31.762Z,16.08
2023-01-21T15:30:54.222Z,24.38
2023-01-21T15:36:03.407Z,31.50
2023-01-21T15:41:16.299Z,17.95
2023-01-21T15:46:25.928Z,16.23
2023-01-21T15:51:36.039Z,19.93
2023-01-21T15:56:52.166Z,14.55
2023-01-21T16:02:10.572Z,15.60
2023-01-21T16:07:21.819Z,12.88
2023-01-21T16:12:32.833Z,12.52
2023-01-21T16:17:45.995Z,13.65
2023-01-21T16:22:52.739Z,13.10
2023-01-21T16:28:00.130Z,22.08
2023-01-21T16:33:14.835Z,17.27
2023-01-21T16:38:21.462Z,19.48
2023-01-21T16:43:30.472Z,23.63
2023-01-21T16:48:36.651Z,20.38
2023-01-21T16:53:41.370Z,28.38
2023-01-21T16:58:51.794Z,15.15
2023-01-21T17:09:05.212Z,13.40
2023-01-21T17:14:13.334Z,13.95
2023-01-21T17:19:22.928Z,12.45
2023-01-21T17:24:29.726Z,13.53
2023-01-21T17:29:37.325Z,14.55
2023-01-21T17:34:42.066Z,15.45
2023-01-21T17:40:01.245Z,19.90
2023-01-21T17:45:09.228Z,15.13
2023-01-21T17:50:19.797Z,15.15
2023-01-21T17:55:34.530Z,20.00
2023-01-21T18:00:46.735Z,16.85
2023-01-21T18:05:52.157Z,20.48
2023-01-21T18:10:56.829Z,16.52
2023-01-21T18:16:04.299Z,27.00
2023-01-21T18:21:09.266Z,16.42
2023-01-21T18:26:18.405Z,18.20
2023-01-21T18:31:25.790Z,24.52
2023-01-21T18:36:30.577Z,27.33
2023-01-21T18:41:35.221Z,22.00
2023-01-21T18:46:43.586Z,29.55
2023-01-21T18:51:48.716Z,16.45
2023-01-21T18:56:53.575Z,20.60
2023-01-21T19:02:00.893Z,15.35
2023-01-21T19:07:05.635Z,22.55
2023-01-21T19:12:12.270Z,29.35
2023-01-21T19:17:22.089Z,44.13
2023-01-21T19:22:26.899Z,87.82
2023-01-21T19:27:33.289Z,85.13
2023-01-21T19:32:43.586Z,33.55
2023-01-21T19:42:54.263Z,13.52
2023-01-21T19:48:01.694Z,12.57
2023-01-21T19:53:11.968Z,13.05
2023-01-21T20:03:26.033Z,13.32
2023-01-21T20:08:31.796Z,13.30
2023-01-21T20:13:37.157Z,17.00
2023-01-21T20:18:46.419Z,12.95
2023-01-21T20:23:51.035Z,14.65
2023-01-21T20:28:55.675Z,12.88
2023-01-21T20:34:02.977Z,13.70
2023-01-21T20:39:07.667Z,13.57
2023-01-21T20:44:12.382Z,12.25
2023-01-21T20:49:19.708Z,14.70
2023-01-21T20:54:25.005Z,11.73
2023-01-21T20:59:29.762Z,11.93
2023-01-21T21:04:37.229Z,14.45
2023-01-21T21:09:42.025Z,19.90
2023-01-21T21:14:47.466Z,15.27
2023-01-21T21:19:54.997Z,13.55
2023-01-21T21:24:59.977Z,23.25
2023-01-21T21:30:04.752Z,15.35
2023-01-21T21:35:19.403Z,14.50
2023-01-21T21:40:25.877Z,14.73
2023-01-21T21:45:30.756Z,14.30
2023-01-21T21:50:38.793Z,14.23
2023-01-21T21:55:43.597Z,12.82
2023-01-21T22:00:52.900Z,12.88
2023-01-21T22:06:04.003Z,14.35
2023-01-21T22:11:09.390Z,13.23
2023-01-21T22:16:15.142Z,12.95
2023-01-21T22:21:23.488Z,13.25
2023-01-21T22:26:29.227Z,13.40
2023-01-21T22:31:34.973Z,12.57
2023-01-21T22:36:44.365Z,13.63
2023-01-21T22:41:49.055Z,13.15
2023-01-21T22:46:53.758Z,13.45
2023-01-21T22:52:03.933Z,14.70
2023-01-21T22:57:08.759Z,11.90
2023-01-21T23:02:13.544Z,12.77
2023-01-21T23:07:21.190Z,12.27
2023-01-21T23:12:28.833Z,11.80
2023-01-21T23:17:33.918Z,11.73
2023-01-21T23:22:41.351Z,11.15
2023-01-21T23:27:46.396Z,10.45
2023-01-21T23:32:51.160Z,10.13
2023-01-21T23:37:58.730Z,10.15
2023-01-21T23:43:03.443Z,9.40
2023-01-21T23:48:11.190Z,10.77
2023-01-21T23:53:18.701Z,10.45
2023-01-21T23:58:23.378Z,9.65
